Time;durP1;ratioP1;P1;durP2;ratioP2;P2;SDS_P1;SDS_P2;PMS_P1;PMS_P2;Temp;Humidity;BMP_temperature;BMP_pressure;BME280_temperature;BME280_humidity;BME280_pressure;Samples;Min_cycle;Max_cycle;Signal;HPM_P1;HPM_P2
2022/01/28 00:01:04;;;;;;;0.10;0.10;;;;;;;23.86;15.83;98249.63;4996184;28;20402;-80
2022/01/28 00:03:30;;;;;;;0.17;0.17;;;;;;;23.91;15.58;98246.72;4994974;28;20030;-79
2022/01/28 00:05:56;;;;;;;0.20;0.20;;;;;;;23.88;15.85;98250.88;4995795;28;20057;-78
2022/01/28 00:08:21;;;;;;;0.10;0.10;;;;;;;23.90;15.60;98261.47;4995845;28;20485;-79
2022/01/28 00:10:47;;;;;;;0.10;0.10;;;;;;;23.90;15.63;98262.25;4995569;28;20035;-80
2022/01/28 00:39:49;;;;;;;0.20;0.20;;;;;;;23.88;15.68;98285.53;5077774;28;20021;-78
2022/01/28 00:42:14;;;;;;;0.20;0.20;;;;;;;23.86;15.50;98280.41;5082266;28;20039;-79
2022/01/28 00:44:40;;;;;;;0.20;0.20;;;;;;;23.81;15.45;98284.09;5097353;28;20024;-79
2022/01/28 00:47:05;;;;;;;0.20;0.20;;;;;;;23.84;15.61;98287.34;5097083;28;20062;-79
2022/01/28 00:49:31;;;;;;;0.20;0.20;;;;;;;23.85;15.28;98292.44;5096679;28;20020;-79
2022/01/28 00:51:56;;;;;;;0.20;0.20;;;;;;;23.85;15.49;98297.09;5096738;28;20331;-79
2022/01/28 00:54:22;;;;;;;0.20;0.20;;;;;;;23.83;15.33;98293.91;5097548;28;20458;-79
2022/01/28 00:56:48;;;;;;;0.20;0.20;;;;;;;23.81;15.24;98303.19;5095958;28;20348;-79
2022/01/28 00:59:13;;;;;;;0.20;0.20;;;;;;;23.84;15.32;98301.75;5096870;28;20027;-79
2022/01/28 01:01:39;;;;;;;0.30;0.30;;;;;;;23.79;15.47;98308.16;5096812;28;20028;-78
2022/01/28 01:04:04;;;;;;;0.20;0.20;;;;;;;23.82;15.22;98304.03;5096052;28;20024;-78
2022/01/28 01:06:30;;;;;;;0.20;0.20;;;;;;;23.81;15.56;98305.13;5096697;28;20470;-78
2022/01/28 01:08:55;;;;;;;0.20;0.20;;;;;;;23.83;15.38;98313.00;5096561;28;20115;-78
2022/01/28 01:11:22;;;;;;;0.20;0.20;;;;;;;23.83;15.19;98313.00;5096580;28;20094;-79
2022/01/28 01:13:49;;;;;;;0.20;0.20;;;;;;;23.79;15.18;98310.09;5096950;28;20024;-78
2022/01/28 01:16:17;;;;;;;0.20;0.20;;;;;;;23.83;15.15;98315.72;5096104;28;20028;-79
2022/01/28 01:21:29;;;;;;;0.20;0.20;;;;;;;23.81;15.33;98329.69;5096315;28;20032;-78
2022/01/28 01:23:56;;;;;;;0.20;0.20;;;;;;;23.80;15.33;98328.84;5096548;28;20028;-78
2022/01/28 01:26:32;;;;;;;0.20;0.20;;;;;;;23.79;15.29;98332.69;5096085;28;20111;-78
2022/01/28 01:28:57;;;;;;;0.20;0.20;;;;;;;23.76;15.19;98333.34;5095320;28;20032;-78
2022/01/28 01:31:22;;;;;;;0.20;0.20;;;;;;;23.79;15.25;98340.88;5097184;28;20336;-79
2022/01/28 01:36:19;;;;;;;0.20;0.20;;;;;;;23.78;15.08;98339.31;5095972;28;20025;-76
2022/01/28 01:38:45;;;;;;;0.20;0.20;;;;;;;23.76;15.24;98344.25;5095891;28;20486;-79
2022/01/28 01:41:18;;;;;;;0.20;0.20;;;;;;;23.77;15.25;98350.53;5095615;28;20028;-77
2022/01/28 01:54:05;;;;;;;0.20;0.20;;;;;;;23.78;15.10;98372.03;5075051;28;20055;-79
2022/01/28 01:56:30;;;;;;;0.30;0.30;;;;;;;23.77;15.03;98367.69;5073895;28;20387;-79
2022/01/28 01:58:56;;;;;;;0.20;0.20;;;;;;;23.76;15.36;98368.00;5074787;28;20032;-76
2022/01/28 02:01:22;;;;;;;0.30;0.30;;;;;;;23.71;15.25;98360.78;5074910;28;20025;-79
2022/01/28 02:03:47;;;;;;;0.40;0.40;;;;;;;23.77;15.06;98375.06;5074824;28;20033;-79
2022/01/28 02:06:13;;;;;;;0.30;0.30;;;;;;;23.73;15.27;98365.94;5075072;28;20054;-79
2022/01/28 02:08:38;;;;;;;0.40;0.40;;;;;;;23.72;15.18;98373.31;5073954;28;20463;-79
2022/01/28 02:11:04;;;;;;;0.30;0.30;;;;;;;23.77;15.10;98377.81;5057388;28;20050;-79
2022/01/28 02:13:30;;;;;;;0.28;0.28;;;;;;;23.75;15.26;98386.31;5074905;28;20077;-79
2022/01/28 02:15:56;;;;;;;0.45;0.45;;;;;;;23.72;15.25;98386.94;5075295;28;20028;-79
2022/01/28 02:18:22;;;;;;;0.45;0.40;;;;;;;23.75;15.26;98386.31;5075041;28;20045;-79
2022/01/28 02:20:50;;;;;;;0.32;0.30;;;;;;;23.75;15.11;98386.31;5074766;28;20116;-78
2022/01/28 02:23:16;;;;;;;0.30;0.30;;;;;;;23.73;15.21;98385.84;5075033;28;20078;-79
2022/01/28 02:25:42;;;;;;;0.32;0.32;;;;;;;23.71;15.19;98390.78;5074664;28;20418;-77
2022/01/28 02:28:10;;;;;;;0.40;0.40;;;;;;;23.70;15.22;98385.66;5074866;28;20024;-79
2022/01/28 02:30:35;;;;;;;0.40;0.40;;;;;;;23.74;15.12;98403.78;5074512;28;20032;-77
2022/01/28 02:33:10;;;;;;;0.30;0.30;;;;;;;23.72;15.21;98405.25;5074624;28;20348;-79
2022/01/28 02:35:35;;;;;;;;;;;;;;;24.02;14.78;98406.16;5074981;28;20552;-76
2022/01/28 02:38:01;;;;;;;0.30;0.30;;;;;;;23.84;14.85;98415.53;5074500;28;19909;-79
2022/01/28 02:40:26;;;;;;;0.40;0.40;;;;;;;23.78;14.93;98420.28;5075165;28;20025;-79
2022/01/28 02:43:03;;;;;;;0.30;0.30;;;;;;;23.74;14.87;98414.69;5082863;28;20043;-79
2022/01/28 02:45:34;;;;;;;0.40;0.40;;;;;;;23.74;15.03;98425.59;5095056;28;20028;-79
2022/01/28 02:48:03;;;;;;;0.40;0.40;;;;;;;23.73;15.05;98421.28;5093833;28;20032;-80
2022/01/28 02:50:33;;;;;;;0.40;0.40;;;;;;;23.71;14.86;98423.50;5093719;28;20042;-79
2022/01/28 02:53:19;;;;;;;0.30;0.30;;;;;;;23.70;14.93;98430.09;5094477;28;20466;-79
2022/01/28 02:55:45;;;;;;;0.22;0.22;;;;;;;23.72;15.00;98435.25;5095037;28;20024;-79
2022/01/28 02:58:19;;;;;;;0.40;0.40;;;;;;;23.72;15.06;98440.69;5094799;28;20421;-79
2022/01/28 03:00:47;;;;;;;0.30;0.30;;;;;;;23.71;15.05;98439.09;5095795;28;20413;-79
2022/01/28 03:03:13;;;;;;;0.28;0.28;;;;;;;23.70;14.86;98441.00;5093162;28;20020;-79
2022/01/28 03:05:38;;;;;;;0.40;0.40;;;;;;;23.72;14.98;98452.41;5094954;28;20028;-79
2022/01/28 03:08:05;;;;;;;0.40;0.40;;;;;;;23.70;14.82;98446.47;5094755;28;20031;-79
2022/01/28 03:10:42;;;;;;;0.40;0.40;;;;;;;23.68;15.00;98448.72;5094912;28;20047;-78
2022/01/28 03:15:34;;;;;;;0.30;0.30;;;;;;;23.69;14.76;98453.03;5095243;28;20454;-78
2022/01/28 03:18:13;;;;;;;0.40;0.40;;;;;;;23.69;14.92;98455.75;5094534;28;20092;-78
2022/01/28 03:20:55;;;;;;;0.40;0.40;;;;;;;23.69;14.72;98453.03;5094456;28;20032;-79
2022/01/28 03:23:21;;;;;;;0.40;0.40;;;;;;;23.67;14.75;98460.75;5094628;28;20025;-80
2022/01/28 03:25:48;;;;;;;0.40;0.40;;;;;;;23.71;14.58;98472.59;5094487;28;20023;-79
2022/01/28 03:28:14;;;;;;;0.40;0.40;;;;;;;23.69;14.85;98474.06;5094873;28;20095;-79
2022/01/28 03:30:40;;;;;;;0.40;0.40;;;;;;;23.68;14.56;98477.91;5094435;28;20028;-79
2022/01/28 03:33:05;;;;;;;0.40;0.40;;;;;;;23.68;14.68;98484.16;5094037;28;20043;-80
2022/01/28 03:35:31;;;;;;;0.40;0.40;;;;;;;23.67;14.62;98488.00;5094291;28;20035;-78
2022/01/28 03:38:01;;;;;;;0.50;0.50;;;;;;;23.68;14.79;98486.91;5096302;28;20020;-79
2022/01/28 03:40:27;;;;;;;0.40;0.40;;;;;;;23.67;14.82;98489.94;5098281;28;20035;-79
2022/01/28 03:42:52;;;;;;;0.40;0.40;;;;;;;23.65;14.61;98490.25;5089228;28;20434;-77
2022/01/28 03:45:18;;;;;;;0.32;0.32;;;;;;;23.65;14.61;98498.44;5077704;28;20020;-77
2022/01/28 03:47:43;;;;;;;0.52;0.52;;;;;;;23.65;14.75;98503.91;5077684;28;20040;-79
2022/01/28 03:50:09;;;;;;;0.50;0.50;;;;;;;23.60;14.90;98507.56;5078365;28;20032;-78
2022/01/28 03:52:34;;;;;;;0.30;0.30;;;;;;;23.66;14.65;98505.47;5076786;28;20029;-78
2022/01/28 03:55:00;;;;;;;0.40;0.40;;;;;;;23.65;14.54;98522.19;5077551;28;20031;-78
2022/01/28 03:57:25;;;;;;;0.60;0.60;;;;;;;23.66;14.49;98518.31;5077115;28;20020;-79
2022/01/28 03:59:50;;;;;;;0.60;0.60;;;;;;;23.68;14.75;98521.53;5077487;28;20043;-79
2022/01/28 04:02:20;;;;;;;0.43;0.43;;;;;;;23.65;14.37;98514.81;5078121;28;20029;-79
2022/01/28 04:05:38;;;;;;;0.50;0.50;;;;;;;23.68;14.33;98532.44;5080310;28;20035;-79
2022/01/28 04:12:59;;;;;;;0.30;0.30;;;;;;;23.69;14.29;98536.78;5085789;28;20047;-77
2022/01/28 04:18:02;;;;;;;0.50;0.50;;;;;;;23.73;14.35;98541.28;5076122;28;20049;-77
2022/01/28 04:20:30;;;;;;;0.55;0.55;;;;;;;23.72;14.42;98531.47;5075988;28;20059;-78
2022/01/28 04:22:56;;;;;;;0.50;0.50;;;;;;;23.76;14.52;98540.63;5076193;28;20036;-79
2022/01/28 04:25:21;;;;;;;0.40;0.40;;;;;;;23.81;14.20;98537.75;5075997;28;20028;-78
2022/01/28 04:27:46;;;;;;;0.60;0.55;;;;;;;23.81;14.26;98554.13;5076324;28;20025;-76
2022/01/28 04:30:12;;;;;;;0.35;0.30;;;;;;;23.84;14.18;98557.38;5076104;28;20418;-80
2022/01/28 04:32:38;;;;;;;0.47;0.47;;;;;;;23.89;14.12;98566.19;5076549;28;20082;-80
2022/01/28 04:35:04;;;;;;;0.50;0.50;;;;;;;23.86;14.26;98557.84;5076571;28;20024;-79
2022/01/28 04:37:47;;;;;;;0.60;0.60;;;;;;;23.90;14.21;98566.97;5077621;28;20465;-80
2022/01/28 04:40:24;;;;;;;0.45;0.45;;;;;;;23.97;13.95;98572.75;5077092;28;20036;-77
2022/01/28 04:53:21;;;;;;;0.40;0.40;;;;;;;24.07;14.07;98588.81;5054931;28;20060;-79
2022/01/28 04:56:09;;;;;;;0.43;0.43;;;;;;;24.10;14.09;98604.53;5054622;28;20048;-79
2022/01/28 05:27:22;;;;;;;0.50;0.50;;;;;;;24.33;13.58;98651.56;5004277;28;20054;-78
2022/01/28 05:29:47;;;;;;;0.40;0.40;;;;;;;24.32;13.70;98652.72;5005744;28;20117;-77
2022/01/28 05:32:13;;;;;;;0.30;0.30;;;;;;;24.33;13.95;98659.75;5005871;28;20057;-78
2022/01/28 05:34:39;;;;;;;0.50;0.50;;;;;;;24.35;13.72;98656.72;5007212;28;20038;-78
2022/01/28 05:37:04;;;;;;;0.50;0.50;;;;;;;24.36;13.92;98658.31;5005320;28;20038;-80
2022/01/28 05:39:30;;;;;;;0.60;0.60;;;;;;;24.35;13.63;98670.34;5081908;28;20036;-78
2022/01/28 05:41:55;;;;;;;1.65;0.47;;;;;;;24.42;13.73;98667.94;5085278;28;20021;-78
2022/01/28 05:44:21;;;;;;;0.93;0.43;;;;;;;24.43;13.55;98666.84;5087206;28;20064;-80
2022/01/28 05:46:46;;;;;;;0.50;0.50;;;;;;;24.47;13.43;98675.97;5088408;28;20044;-79
2022/01/28 05:49:13;;;;;;;0.52;0.52;;;;;;;24.47;13.63;98670.50;5091742;28;20054;-80
2022/01/28 05:51:39;;;;;;;2.00;1.10;;;;;;;24.38;13.97;98677.91;5088378;28;20027;-79
2022/01/28 05:54:04;;;;;;;2.65;1.10;;;;;;;24.42;13.96;98681.59;5090203;28;20033;-78
2022/01/28 05:56:31;;;;;;;4.57;1.63;;;;;;;24.50;13.91;98689.00;5090571;28;20028;-80
2022/01/28 05:58:56;;;;;;;5.97;1.75;;;;;;;24.46;14.01;98692.72;5083172;28;20034;-79
2022/01/28 06:01:22;;;;;;;4.57;1.50;;;;;;;24.43;14.14;98699.59;5074416;28;20021;-79
2022/01/28 06:03:47;;;;;;;4.07;1.45;;;;;;;24.54;14.32;98706.38;5075440;28;20021;-79
2022/01/28 06:06:20;;;;;;;2.47;1.20;;;;;;;24.60;14.36;98708.97;5075481;28;20035;-79
2022/01/28 06:08:50;;;;;;;3.17;1.38;;;;;;;24.61;14.36;98705.91;5073928;28;20024;-78
2022/01/28 06:11:16;;;;;;;4.10;1.20;;;;;;;24.60;14.05;98708.97;5074377;28;20033;-78
2022/01/28 06:13:42;;;;;;;2.22;0.90;;;;;;;24.57;14.25;98718.59;5073934;28;20054;-77
2022/01/28 06:16:08;;;;;;;1.15;0.88;;;;;;;24.63;14.39;98728.22;5074498;28;20099;-78
2022/01/28 06:18:33;;;;;;;1.35;0.77;;;;;;;24.69;13.75;98734.31;5075128;28;20437;-78
2022/01/28 06:21:00;;;;;;;1.35;0.80;;;;;;;24.68;14.22;98727.25;5077405;28;20048;-76
2022/01/28 06:23:25;;;;;;;3.33;1.00;;;;;;;24.66;14.31;98729.50;5078292;28;20094;-78
2022/01/28 06:25:50;;;;;;;1.10;0.80;;;;;;;24.73;15.02;98741.56;5075466;28;20028;-77
2022/01/28 06:28:16;;;;;;;2.58;0.50;;;;;;;24.44;14.56;98749.53;5076376;28;20089;-77
2022/01/28 06:30:42;;;;;;;2.78;0.60;;;;;;;24.51;14.65;98744.44;5073875;28;20360;-77
2022/01/28 06:33:10;;;;;;;1.13;0.60;;;;;;;24.69;14.33;98758.91;5074459;28;20028;-77
2022/01/28 06:35:36;;;;;;;0.95;0.63;;;;;;;24.72;14.33;98739.16;5077321;28;20025;-76
2022/01/28 06:38:01;;;;;;;1.35;0.50;;;;;;;24.80;13.92;98749.28;5076185;28;20028;-77
2022/01/28 06:40:27;;;;;;;0.57;0.50;;;;;;;24.82;14.33;98766.16;5077046;28;20110;-76
2022/01/28 06:42:52;;;;;;;0.65;0.50;;;;;;;24.88;14.01;98764.06;5075231;28;20028;-76
2022/01/28 06:45:17;;;;;;;0.60;0.60;;;;;;;24.86;14.08;98761.63;5078827;28;20059;-79
2022/01/28 06:47:43;;;;;;;0.95;0.75;;;;;;;24.88;13.68;98767.56;5074071;28;20025;-77
2022/01/28 06:50:09;;;;;;;0.70;0.60;;;;;;;24.92;13.67;98770.47;5073434;28;20025;-78
2022/01/28 06:52:35;;;;;;;0.98;0.50;;;;;;;24.91;13.67;98777.88;5073429;28;20039;-76
2022/01/28 06:55:01;;;;;;;0.80;0.60;;;;;;;24.92;13.52;98774.03;5074552;28;20103;-79
2022/01/28 06:57:28;;;;;;;0.60;0.60;;;;;;;24.95;13.64;98780.75;5074377;28;20031;-77
2022/01/28 06:59:54;;;;;;;0.65;0.30;;;;;;;24.94;13.71;98779.16;5076970;28;20028;-76
2022/01/28 07:02:19;;;;;;;0.70;0.60;;;;;;;24.99;13.81;98789.09;5076890;28;20031;-79
2022/01/28 07:04:45;;;;;;;0.50;0.50;;;;;;;25.01;13.26;98786.84;5073342;28;20029;-75
2022/01/28 07:07:10;;;;;;;0.40;0.40;;;;;;;25.07;13.53;98791.84;5075923;28;20032;-79
2022/01/28 07:09:35;;;;;;;0.50;0.50;;;;;;;25.05;13.38;98796.81;5074015;28;20059;-80
2022/01/28 07:12:02;;;;;;;0.40;0.40;;;;;;;25.02;13.64;98800.19;5077909;28;20367;-79
2022/01/28 07:14:27;;;;;;;0.50;0.50;;;;;;;25.03;13.72;98799.09;5080183;28;20016;-79
2022/01/28 07:16:53;;;;;;;1.73;0.40;;;;;;;25.03;13.46;98801.81;5078926;28;20094;-79
2022/01/28 07:19:18;;;;;;;0.60;0.50;;;;;;;25.13;13.58;98808.91;5083786;28;20367;-80
2022/01/28 07:21:43;;;;;;;0.52;0.52;;;;;;;25.03;13.85;98815.47;5080657;28;20098;-82
2022/01/28 07:24:09;;;;;;;0.88;0.50;;;;;;;25.09;13.79;98813.38;5078860;28;20035;-83
2022/01/28 07:26:34;;;;;;;0.50;0.50;;;;;;;25.12;13.48;98820.94;5078479;28;20032;-83
2022/01/28 07:29:00;;;;;;;1.13;0.55;;;;;;;25.20;13.58;98827.50;5078766;28;20028;-80
2022/01/28 07:31:25;;;;;;;0.55;0.50;;;;;;;25.12;13.57;98831.88;5077723;28;20021;-81
2022/01/28 07:33:51;;;;;;;0.82;0.60;;;;;;;25.21;13.53;98849.06;5078368;28;20035;-81
2022/01/28 07:36:16;;;;;;;0.60;0.50;;;;;;;25.09;13.58;98848.91;5078364;28;20076;-83
2022/01/28 07:38:41;;;;;;;1.10;0.70;;;;;;;25.06;13.52;98853.09;5077640;28;20118;-84
2022/01/28 07:41:07;;;;;;;0.80;0.80;;;;;;;25.17;13.51;98864.50;5077692;28;20039;-83
2022/01/28 07:43:37;;;;;;;0.65;0.65;;;;;;;25.20;13.42;98866.63;5076522;28;20032;-80
2022/01/28 07:46:03;;;;;;;0.77;0.70;;;;;;;25.21;13.55;98881.88;5077448;28;20078;-82
2022/01/28 07:48:28;;;;;;;1.58;0.75;;;;;;;25.25;13.59;98882.03;5075119;28;20475;-82
2022/01/28 07:50:53;;;;;;;1.50;0.82;;;;;;;25.25;13.68;98892.97;5077189;28;20020;-82
2022/01/28 07:53:19;;;;;;;1.90;0.90;;;;;;;25.24;13.41;98891.38;5077258;28;20029;-81
2022/01/28 07:55:44;;;;;;;1.30;1.05;;;;;;;25.33;13.36;98899.59;5076896;28;20130;-82
2022/01/28 07:58:09;;;;;;;5.05;1.00;;;;;;;25.32;13.47;98895.25;5076986;28;20053;-82
2022/01/28 08:00:35;;;;;;;3.63;0.90;;;;;;;25.35;13.42;98891.88;5076729;28;20025;-81
2022/01/28 08:03:00;;;;;;;4.97;1.00;;;;;;;25.35;13.58;98906.34;5077825;28;20055;-82
2022/01/28 08:05:26;;;;;;;1.50;0.90;;;;;;;25.33;13.77;98913.28;5076565;28;20387;-81
2022/01/28 08:07:52;;;;;;;1.10;0.80;;;;;;;25.33;13.61;98908.59;5076369;28;20029;-80
2022/01/28 08:10:17;;;;;;;1.40;0.90;;;;;;;25.34;13.58;98917.63;5076173;28;20055;-80
2022/01/28 08:12:51;;;;;;;2.05;0.93;;;;;;;25.33;13.71;98916.81;5077318;28;20565;-79
2022/01/28 08:15:17;;;;;;;1.15;0.82;;;;;;;25.34;13.63;98918.44;5076668;28;20033;-80
2022/01/28 08:17:42;;;;;;;1.75;0.75;;;;;;;25.35;13.39;98920.00;5077040;28;20048;-79
2022/01/28 08:20:08;;;;;;;2.15;0.90;;;;;;;25.39;13.60;98920.16;5079360;28;20025;-79
2022/01/28 08:22:45;;;;;;;2.28;1.30;;;;;;;25.42;13.71;98930.47;5078277;28;20025;-80
2022/01/28 08:25:11;;;;;;;1.30;0.70;;;;;;;25.38;13.71;98929.53;5076526;28;20024;-80
2022/01/28 08:27:36;;;;;;;1.60;0.73;;;;;;;25.43;13.53;98940.28;5077313;28;20025;-80
2022/01/28 08:30:02;;;;;;;1.30;0.98;;;;;;;25.47;13.49;98941.25;5076591;28;20497;-79
2022/01/28 08:32:27;;;;;;;1.17;0.80;;;;;;;25.45;13.81;98952.50;5078290;28;20070;-81
2022/01/28 08:34:54;;;;;;;1.25;0.80;;;;;;;25.54;13.32;98957.19;5077125;28;20016;-78
2022/01/28 08:37:19;;;;;;;2.58;0.90;;;;;;;25.46;13.45;98969.75;5077268;28;20481;-79
2022/01/28 08:39:44;;;;;;;3.22;1.38;;;;;;;25.45;13.72;98968.13;5076043;28;20052;-78
2022/01/28 08:42:10;;;;;;;3.85;1.70;;;;;;;25.55;13.38;98965.06;5074852;28;20375;-78
2022/01/28 08:44:35;;;;;;;2.47;1.50;;;;;;;25.53;13.52;98975.53;5076235;28;20063;-77
2022/01/28 08:47:01;;;;;;;7.38;3.20;;;;;;;25.59;13.49;98976.16;5077393;28;20024;-75
2022/01/28 08:49:26;;;;;;;11.85;5.20;;;;;;;25.58;13.90;98988.25;5077022;28;20028;-78
2022/01/28 08:51:51;;;;;;;10.95;3.42;;;;;;;25.55;13.67;98989.69;5080963;28;20455;-78
2022/01/28 08:54:17;;;;;;;8.73;3.65;;;;;;;25.54;13.77;98990.81;5080075;28;20028;-78
2022/01/28 08:56:43;;;;;;;9.00;3.63;;;;;;;25.47;13.56;98987.75;5076771;28;20023;-78
2022/01/28 08:59:09;;;;;;;4.40;1.80;;;;;;;25.54;13.59;99003.69;5075564;28;20109;-76
2022/01/28 09:01:34;;;;;;;2.88;1.25;;;;;;;25.62;13.36;99009.16;5075201;28;20415;-77
2022/01/28 09:03:59;;;;;;;3.40;1.48;;;;;;;25.50;13.46;99003.53;5075926;28;20021;-77
2022/01/28 09:06:25;;;;;;;2.38;1.02;;;;;;;25.64;13.41;99020.56;5076053;28;20044;-76
2022/01/28 09:08:54;;;;;;;2.65;0.93;;;;;;;25.73;13.36;99020.56;5075394;28;20459;-77
2022/01/28 09:11:32;;;;;;;1.55;1.02;;;;;;;25.67;13.32;99019.94;5075302;28;20455;-77
2022/01/28 09:13:57;;;;;;;1.88;0.90;;;;;;;25.70;13.61;99021.25;5076425;28;20024;-76
2022/01/28 09:16:23;;;;;;;2.78;0.90;;;;;;;25.78;13.12;99019.63;5075427;28;20036;-77
2022/01/28 09:18:48;;;;;;;1.13;0.80;;;;;;;25.72;13.48;99020.91;5075413;28;20119;-78
2022/01/28 09:21:14;;;;;;;1.13;0.88;;;;;;;25.76;13.40;99021.88;5074312;28;20028;-78
2022/01/28 09:23:40;;;;;;;2.42;0.80;;;;;;;25.76;13.44;99027.34;5074305;28;20027;-77
2022/01/28 09:26:05;;;;;;;0.80;0.60;;;;;;;25.75;13.10;99025.72;5075458;28;20028;-78
2022/01/28 09:28:31;;;;;;;0.57;0.57;;;;;;;25.82;13.30;99037.00;5076615;28;20024;-78
2022/01/28 09:30:57;;;;;;;1.77;0.75;;;;;;;25.78;13.42;99036.81;5076298;28;20021;-77
2022/01/28 09:33:22;;;;;;;0.40;0.40;;;;;;;25.79;13.52;99043.91;5073544;28;20082;-77
2022/01/28 09:35:48;;;;;;;1.35;0.70;;;;;;;25.83;13.17;99049.56;5073413;28;20059;-76
2022/01/28 09:38:14;;;;;;;1.95;0.57;;;;;;;25.78;13.11;99046.97;5074503;28;20063;-77
2022/01/28 09:40:39;;;;;;;0.60;0.50;;;;;;;25.82;13.31;99056.16;5074294;28;20470;-78
2022/01/28 09:43:07;;;;;;;1.73;0.52;;;;;;;25.80;13.17;99061.97;5074876;28;20020;-77
2022/01/28 09:45:32;;;;;;;0.63;0.43;;;;;;;25.74;13.16;99060.50;5074399;28;20094;-75
2022/01/28 09:47:59;;;;;;;0.52;0.40;;;;;;;25.74;13.22;99063.25;5073506;28;20025;-76
2022/01/28 09:50:26;;;;;;;0.73;0.45;;;;;;;25.76;13.26;99065.66;5073288;28;20035;-77
2022/01/28 09:52:52;;;;;;;0.50;0.50;;;;;;;25.78;13.07;99066.94;5074481;28;20033;-78
2022/01/28 09:55:18;;;;;;;0.57;0.50;;;;;;;25.81;13.12;99073.72;5074255;28;20029;-77
2022/01/28 09:57:47;;;;;;;0.43;0.43;;;;;;;25.77;13.33;99079.00;5073998;28;20031;-77
2022/01/28 10:00:13;;;;;;;0.40;0.40;;;;;;;25.76;13.27;99082.88;5074108;28;20463;-76
2022/01/28 10:02:50;;;;;;;0.50;0.32;;;;;;;25.84;13.21;99076.59;5073659;28;20305;-76
2022/01/28 10:05:20;;;;;;;0.60;0.40;;;;;;;25.80;13.25;99074.81;5075160;28;20088;-77
2022/01/28 10:08:04;;;;;;;2.20;1.00;;;;;;;25.90;13.48;99085.44;5076573;28;20036;-77
2022/01/28 10:10:48;;;;;;;4.68;1.20;;;;;;;25.88;13.26;99084.97;5075399;28;20025;-77
2022/01/28 10:13:17;;;;;;;;;;;;;;;26.11;13.17;99101.25;5074784;28;20074;-75
2022/01/28 10:16:03;;;;;;;0.80;0.70;;;;;;;26.01;13.28;99097.72;5073443;28;19916;-79
2022/01/28 10:18:44;;;;;;;2.72;0.57;;;;;;;25.95;13.38;99106.41;5074643;28;20107;-77
2022/01/28 10:21:27;;;;;;;2.45;0.70;;;;;;;25.97;13.55;99112.38;5075223;28;20028;-76
2022/01/28 10:24:05;;;;;;;2.63;1.23;;;;;;;25.90;13.38;99104.59;5075408;28;20028;-77
2022/01/28 10:26:44;;;;;;;1.75;1.02;;;;;;;25.95;13.45;99118.16;5073933;28;20028;-74
2022/01/28 10:29:15;;;;;;;1.33;0.70;;;;;;;26.00;13.35;99119.94;5074057;28;20521;-79
2022/01/28 10:31:43;;;;;;;1.58;0.90;;;;;;;25.92;13.54;99129.72;5074988;28;20043;-78
2022/01/28 10:34:22;;;;;;;1.00;0.70;;;;;;;25.92;13.38;99113.28;5074061;28;20036;-78
2022/01/28 10:36:49;;;;;;;0.68;0.50;;;;;;;25.91;13.65;99124.59;5074737;28;20025;-79
2022/01/28 10:39:21;;;;;;;0.60;0.57;;;;;;;25.87;13.29;99129.88;5074103;28;20363;-78
2022/01/28 10:41:57;;;;;;;1.23;0.70;;;;;;;25.90;13.37;99123.75;5075900;28;20032;-78
2022/01/28 10:44:24;;;;;;;10.18;3.53;;;;;;;25.95;13.47;99137.31;5075846;28;20020;-77
2022/01/28 10:46:52;;;;;;;18.15;7.00;;;;;;;25.86;13.79;99136.50;5076512;28;20029;-76
2022/01/28 10:49:17;;;;;;;5.15;2.28;;;;;;;25.88;13.67;99145.19;5077160;28;20587;-77
2022/01/28 10:51:49;;;;;;;4.72;2.17;;;;;;;25.92;13.61;99148.88;5078631;28;20036;-76
2022/01/28 10:54:16;;;;;;;5.75;1.95;;;;;;;25.88;13.62;99149.84;5079280;28;20090;-77
2022/01/28 10:56:49;;;;;;;6.88;1.30;;;;;;;25.91;13.80;99155.50;5080430;28;20036;-79
2022/01/28 10:59:16;;;;;;;2.60;1.20;;;;;;;25.99;13.74;99152.00;5080379;28;20033;-79
2022/01/28 11:01:42;;;;;;;2.10;1.00;;;;;;;25.96;13.83;99155.38;5079060;28;20074;-79
2022/01/28 11:04:11;;;;;;;2.15;0.73;;;;;;;26.03;13.91;99163.91;5078545;28;20051;-79
2022/01/28 11:06:37;;;;;;;4.97;0.73;;;;;;;25.98;13.92;99171.47;5077806;28;20028;-76
2022/01/28 11:09:03;;;;;;;2.30;0.60;;;;;;;26.04;13.81;99159.22;5079137;28;20102;-82
2022/01/28 11:11:28;;;;;;;2.67;0.98;;;;;;;26.03;13.65;99158.44;5080046;28;20035;-78
2022/01/28 11:13:54;;;;;;;21.38;6.35;;;;;;;25.99;13.75;99165.69;5062923;28;20043;-81
2022/01/28 11:16:19;;;;;;;3.03;1.30;;;;;;;26.05;13.74;99161.66;5081276;28;20351;-79
2022/01/28 11:18:45;;;;;;;6.18;2.45;;;;;;;26.04;14.00;99164.69;5082975;28;20056;-79
2022/01/28 11:21:14;;;;;;;5.65;1.75;;;;;;;26.07;13.93;99168.75;5080776;28;20032;-79
2022/01/28 11:23:48;;;;;;;3.15;1.30;;;;;;;26.11;13.79;99175.97;5066272;28;20039;-78
2022/01/28 11:26:35;;;;;;;3.70;1.55;;;;;;;26.05;14.29;99177.28;5085696;28;20054;-78
2022/01/28 11:29:11;;;;;;;1.85;0.95;;;;;;;26.08;13.75;99186.75;5084004;28;20029;-80
2022/01/28 11:31:49;;;;;;;1.88;0.82;;;;;;;26.11;13.92;99180.66;5082605;28;20101;-78
2022/01/28 11:34:21;;;;;;;2.03;0.70;;;;;;;26.05;13.93;99186.28;5084446;28;20048;-80
2022/01/28 11:36:48;;;;;;;2.67;0.70;;;;;;;25.90;14.08;99189.44;5084971;28;20024;-79
2022/01/28 11:39:28;;;;;;;1.30;0.70;;;;;;;26.02;14.24;99192.41;5088007;28;20424;-81
2022/01/28 11:42:00;;;;;;;2.70;0.80;;;;;;;26.08;14.06;99192.25;5081778;28;20032;-78
2022/01/28 11:44:50;;;;;;;1.13;0.60;;;;;;;26.12;14.36;99198.72;5093455;28;20592;-78
2022/01/28 11:47:39;;;;;;;2.15;0.82;;;;;;;26.14;13.96;99199.19;5106506;28;20039;-76
2022/01/28 11:50:15;;;;;;;3.00;0.70;;;;;;;26.05;14.38;99201.91;5104121;28;20197;-78
2022/01/28 11:52:47;;;;;;;0.68;0.50;;;;;;;26.03;14.12;99210.44;5098932;28;20020;-76
2022/01/28 11:55:23;;;;;;;1.40;0.80;;;;;;;26.10;13.88;99212.72;5099641;28;20427;-77
2022/01/28 11:58:10;;;;;;;1.83;0.60;;;;;;;26.15;14.03;99218.03;5103169;28;20036;-79
2022/01/28 12:00:49;;;;;;;1.58;0.80;;;;;;;26.11;13.86;99213.50;5104597;28;20060;-75
2022/01/28 12:03:17;;;;;;;2.38;1.10;;;;;;;26.11;13.85;99229.94;5100091;28;20031;-77
2022/01/28 12:05:42;;;;;;;2.58;1.10;;;;;;;26.08;14.05;99214.13;5098117;28;20111;-78
2022/01/28 12:08:08;;;;;;;1.83;0.68;;;;;;;26.07;14.23;99226.25;5097186;28;20079;-76
2022/01/28 12:10:39;;;;;;;2.00;0.65;;;;;;;26.09;14.04;99221.25;5095002;28;20415;-74
2022/01/28 12:13:06;;;;;;;1.33;0.80;;;;;;;26.04;13.79;99225.75;5097768;28;20028;-75
2022/01/28 12:15:59;;;;;;;0.90;0.65;;;;;;;26.17;13.85;99236.88;5080738;28;20020;-74
2022/01/28 12:18:43;;;;;;;0.68;0.60;;;;;;;26.13;13.46;99241.38;5100999;28;20064;-74
2022/01/28 12:21:14;;;;;;;0.40;0.32;;;;;;;26.02;13.61;99249.88;5100949;28;20103;-74
2022/01/28 12:23:40;;;;;;;0.60;0.40;;;;;;;26.12;13.59;99248.00;5100075;28;20039;-73
2022/01/28 12:26:07;;;;;;;2.67;0.40;;;;;;;26.02;13.76;99263.56;5082920;28;20036;-73
2022/01/28 12:28:32;;;;;;;0.40;0.38;;;;;;;26.01;13.54;99270.19;5100449;28;20100;-74
2022/01/28 12:31:00;;;;;;;0.38;0.30;;;;;;;26.06;13.49;99271.97;5100621;28;20059;-75
2022/01/28 12:33:27;;;;;;;0.60;0.40;;;;;;;26.03;13.61;99273.41;5100728;28;20040;-72
2022/01/28 12:35:56;;;;;;;1.02;0.35;;;;;;;26.01;13.63;99278.41;5099590;28;20054;-74
2022/01/28 12:38:24;;;;;;;0.60;0.20;;;;;;;26.04;13.76;99283.25;5101648;28;20036;-72
2022/01/28 12:40:52;;;;;;;0.85;0.28;;;;;;;25.88;13.42;99292.97;5099844;28;20378;-74
2022/01/28 12:43:19;;;;;;;1.05;0.40;;;;;;;26.06;13.55;99293.88;5102221;28;20466;-74
2022/01/28 12:46:02;;;;;;;0.60;0.40;;;;;;;26.04;13.71;99296.09;5080029;28;20677;-74
2022/01/28 12:48:28;;;;;;;2.15;0.60;;;;;;;25.97;13.89;99313.00;5081593;28;20040;-74
2022/01/28 12:50:55;;;;;;;2.47;0.20;;;;;;;26.09;13.98;99300.63;5082735;28;20024;-74
2022/01/28 12:53:35;;;;;;;0.98;0.40;;;;;;;26.14;13.87;99303.22;5061393;28;20115;-73
2022/01/28 12:56:01;;;;;;;1.50;0.40;;;;;;;26.16;13.77;99315.47;5080159;28;20103;-74
2022/01/28 12:58:50;;;;;;;0.70;0.35;;;;;;;26.19;13.39;99320.31;5080987;28;20466;-75
2022/01/28 13:01:18;;;;;;;0.93;0.38;;;;;;;26.21;13.70;99325.47;5079397;28;20033;-75
2022/01/28 13:04:00;;;;;;;0.82;0.55;;;;;;;26.27;13.57;99331.59;5079326;28;20028;-74
2022/01/28 13:09:23;;;;;;;0.50;0.50;;;;;;;26.22;13.27;99351.75;5035656;28;20396;-75
2022/01/28 13:11:52;;;;;;;0.95;0.50;;;;;;;26.30;12.98;99353.72;5003339;28;20461;-77
2022/01/28 13:14:20;;;;;;;0.70;0.30;;;;;;;26.28;13.25;99366.88;5033511;28;20519;-76